createdAt,value
2018-11-26T00:00:09.184Z,84.741211
2018-11-26T00:00:29.011Z,84.844971
2018-11-26T00:00:49.155Z,84.741211
2018-11-26T00:01:08.827Z,84.741211
2018-11-26T00:01:28.617Z,84.94873
2018-11-26T00:01:48.237Z,85.351562
2018-11-26T00:02:07.899Z,85.150146
2018-11-26T00:02:28.510Z,85.046387
2018-11-26T00:02:48.134Z,84.844971
2018-11-26T00:03:07.773Z,84.94873
2018-11-26T00:03:27.398Z,84.844971
2018-11-26T00:03:47.031Z,84.643555
2018-11-26T00:04:06.703Z,84.539795
2018-11-26T00:04:26.414Z,85.253906
2018-11-26T00:04:46.207Z,85.150146
2018-11-26T00:05:05.823Z,85.046387
2018-11-26T00:05:26.445Z,85.046387
2018-11-26T00:05:46.056Z,85.253906
2018-11-26T00:06:05.717Z,85.046387
2018-11-26T00:06:26.324Z,84.94873
2018-11-26T00:06:46.934Z,84.844971
2018-11-26T00:07:06.765Z,84.741211
2018-11-26T00:07:26.349Z,84.643555
2018-11-26T00:07:46.017Z,84.741211
2018-11-26T00:08:05.775Z,84.60083
2018-11-26T00:08:25.481Z,84.503174
2018-11-26T00:08:45.092Z,84.60083
2018-11-26T00:09:04.762Z,84.60083
2018-11-26T00:09:25.080Z,84.503174
2018-11-26T00:09:44.747Z,84.60083
2018-11-26T00:10:04.377Z,84.94873
2018-11-26T00:10:24.082Z,85.150146
2018-11-26T00:10:43.743Z,85.150146
2018-11-26T00:11:03.473Z,84.844971
2018-11-26T00:11:23.228Z,84.741211
2018-11-26T00:11:42.845Z,84.906006
2018-11-26T00:12:02.473Z,85.314941
2018-11-26T00:12:22.106Z,85.253906
2018-11-26T00:12:41.746Z,85.046387
2018-11-26T00:13:01.391Z,84.741211
2018-11-26T00:13:21.023Z,84.643555
2018-11-26T00:13:40.721Z,84.539795
2018-11-26T00:14:00.340Z,84.399414
2018-11-26T00:14:20.931Z,84.503174
2018-11-26T00:14:40.579Z,84.399414
2018-11-26T00:15:00.245Z,84.503174
2018-11-26T00:15:19.913Z,84.399414
2018-11-26T00:15:39.529Z,84.60083
2018-11-26T00:15:59.213Z,85.107422
2018-11-26T00:16:18.844Z,85.009766
2018-11-26T00:16:38.498Z,84.802246
2018-11-26T00:16:58.144Z,84.60083
2018-11-26T00:17:17.817Z,84.503174
2018-11-26T00:17:37.490Z,84.503174
2018-11-26T00:17:57.298Z,84.503174
2018-11-26T00:18:17.307Z,84.60083
2018-11-26T00:18:37.004Z,84.70459
2018-11-26T00:18:56.636Z,84.70459
2018-11-26T00:19:16.348Z,84.70459
2018-11-26T00:19:36.192Z,84.70459
2018-11-26T00:19:55.852Z,84.70459
2018-11-26T00:20:15.672Z,84.802246
2018-11-26T00:20:35.351Z,84.70459
2018-11-26T00:20:54.989Z,84.802246
2018-11-26T00:21:14.697Z,84.70459
2018-11-26T00:21:34.383Z,84.70459
2018-11-26T00:21:54.045Z,84.70459
2018-11-26T00:22:13.716Z,84.70459
2018-11-26T00:22:33.355Z,84.60083
2018-11-26T00:22:52.991Z,84.60083
2018-11-26T00:23:12.645Z,84.60083
2018-11-26T00:23:32.256Z,84.802246
2018-11-26T00:23:51.884Z,84.70459
2018-11-26T00:24:11.608Z,84.503174
2018-11-26T00:24:31.245Z,84.802246
2018-11-26T00:24:51.857Z,85.009766
2018-11-26T00:25:11.468Z,85.009766
2018-11-26T00:25:31.097Z,85.009766
2018-11-26T00:25:50.719Z,85.107422
2018-11-26T00:26:11.451Z,85.107422
2018-11-26T00:26:31.104Z,85.009766
2018-11-26T00:26:50.679Z,85.412598
2018-11-26T00:27:10.319Z,85.412598
2018-11-26T00:27:29.931Z,85.107422
2018-11-26T00:27:49.598Z,85.107422
2018-11-26T00:28:09.227Z,85.107422
2018-11-26T00:28:28.895Z,85.009766
2018-11-26T00:28:49.360Z,85.107422
2018-11-26T00:29:08.970Z,85.211182
2018-11-26T00:29:28.599Z,85.821533
2018-11-26T00:29:48.289Z,85.821533
2018-11-26T00:30:08.007Z,85.516357
2018-11-26T00:30:27.636Z,85.717773
2018-11-26T00:30:47.261Z,85.717773
2018-11-26T00:31:07.787Z,85.620117
2018-11-26T00:31:27.497Z,85.412598
2018-11-26T00:31:48.144Z,85.516357
2018-11-26T00:32:07.814Z,85.516357
2018-11-26T00:32:27.418Z,85.516357
2018-11-26T00:32:47.091Z,85.821533
2018-11-26T00:33:06.738Z,85.821533
2018-11-26T00:33:26.340Z,85.821533
2018-11-26T00:33:45.964Z,86.126709
2018-11-26T00:34:05.617Z,86.126709
2018-11-26T00:34:25.234Z,85.919189
2018-11-26T00:34:44.853Z,86.126709
2018-11-26T00:35:05.481Z,86.633301
2018-11-26T00:35:25.082Z,86.431885
2018-11-26T00:35:44.705Z,86.431885
2018-11-26T00:36:04.311Z,86.328125
2018-11-26T00:36:23.969Z,86.633301
2018-11-26T00:36:43.582Z,86.633301
2018-11-26T00:37:03.202Z,86.529541
2018-11-26T00:37:23.844Z,86.529541
2018-11-26T00:37:43.408Z,86.834717
2018-11-26T00:38:03.026Z,86.737061
2018-11-26T00:38:22.631Z,86.633301
2018-11-26T00:38:42.343Z,86.328125
2018-11-26T00:39:02.578Z,86.022949
2018-11-26T00:39:22.196Z,86.022949
2018-11-26T00:39:41.947Z,86.022949
2018-11-26T00:40:02.727Z,85.919189
2018-11-26T00:40:22.363Z,85.919189
2018-11-26T00:40:42.070Z,86.022949
2018-11-26T00:41:01.692Z,85.919189
2018-11-26T00:41:21.365Z,85.919189
2018-11-26T00:41:40.979Z,86.126709
2018-11-26T00:42:00.643Z,86.126709
2018-11-26T00:42:20.247Z,86.126709
2018-11-26T00:42:39.930Z,86.126709
2018-11-26T00:42:59.608Z,86.126709
2018-11-26T00:43:19.262Z,86.224365
2018-11-26T00:43:38.867Z,86.022949
2018-11-26T00:43:58.485Z,85.717773
2018-11-26T00:44:18.163Z,85.620117
2018-11-26T00:44:38.767Z,86.126709
2018-11-26T00:44:58.380Z,86.224365
2018-11-26T00:45:18.061Z,85.919189
2018-11-26T00:45:37.710Z,85.919189
2018-11-26T00:45:57.527Z,86.022949
2018-11-26T00:46:17.346Z,85.919189
2018-11-26T00:46:37.054Z,86.022949
2018-11-26T00:46:56.694Z,85.717773
2018-11-26T00:47:16.431Z,85.919189
2018-11-26T00:47:36.167Z,85.919189
2018-11-26T00:47:55.783Z,85.919189
2018-11-26T00:48:15.425Z,85.919189
2018-11-26T00:48:35.044Z,85.821533
2018-11-26T00:48:54.646Z,85.821533
2018-11-26T00:49:14.265Z,86.022949
2018-11-26T00:49:33.957Z,85.717773
2018-11-26T00:49:53.586Z,85.516357
2018-11-26T00:50:13.206Z,85.821533
2018-11-26T00:50:32.823Z,86.126709
2018-11-26T00:50:53.444Z,86.328125
2018-11-26T00:51:13.063Z,86.328125
2018-11-26T00:51:32.768Z,86.431885
2018-11-26T00:51:52.470Z,86.328125
2018-11-26T00:52:12.097Z,86.328125
2018-11-26T00:52:31.706Z,86.328125
2018-11-26T00:52:51.435Z,86.022949
2018-11-26T00:53:11.055Z,85.821533
2018-11-26T00:53:30.874Z,85.821533
2018-11-26T00:53:50.517Z,86.126709
2018-11-26T00:54:10.233Z,86.328125
2018-11-26T00:54:29.857Z,86.328125
2018-11-26T00:54:50.552Z,86.431885
2018-11-26T00:55:10.119Z,86.737061
2018-11-26T00:55:29.797Z,86.633301
2018-11-26T00:55:49.468Z,86.529541
2018-11-26T00:56:09.117Z,86.328125
2018-11-26T00:56:28.762Z,86.224365
2018-11-26T00:56:48.443Z,86.431885
2018-11-26T00:57:08.058Z,86.633301
2018-11-26T00:57:27.683Z,86.737061
2018-11-26T00:57:47.335Z,86.431885
2018-11-26T00:58:06.930Z,86.328125
2018-11-26T00:58:26.543Z,86.633301
2018-11-26T00:58:46.175Z,86.529541
2018-11-26T00:59:05.793Z,86.431885
2018-11-26T00:59:25.403Z,86.529541
2018-11-26T00:59:45.012Z,86.529541
2018-11-26T01:00:04.744Z,86.529541
2018-11-26T01:00:24.352Z,86.938477
2018-11-26T01:00:44.105Z,87.243652
2018-11-26T01:01:03.729Z,87.445068
2018-11-26T01:01:23.476Z,87.445068
2018-11-26T01:01:43.157Z,87.139893
2018-11-26T01:02:02.766Z,87.341309
2018-11-26T01:02:22.403Z,87.139893
2018-11-26T01:02:42.071Z,87.139893
2018-11-26T01:03:01.715Z,87.243652
2018-11-26T01:03:21.417Z,87.341309
2018-11-26T01:03:41.129Z,87.139893
2018-11-26T01:04:00.788Z,86.834717
2018-11-26T01:04:20.424Z,86.938477
2018-11-26T01:04:40.027Z,86.834717
2018-11-26T01:04:59.795Z,86.834717
2018-11-26T01:05:20.182Z,86.834717
2018-11-26T01:05:39.890Z,86.834717
2018-11-26T01:05:59.590Z,86.938477
2018-11-26T01:06:19.343Z,86.737061
2018-11-26T01:06:39.017Z,86.737061
2018-11-26T01:06:58.673Z,87.042236
2018-11-26T01:07:18.285Z,87.042236
2018-11-26T01:07:37.968Z,86.938477
2018-11-26T01:07:58.424Z,87.139893
2018-11-26T01:08:18.040Z,87.139893
2018-11-26T01:08:37.647Z,87.548828
2018-11-26T01:08:57.267Z,87.750244
2018-11-26T01:09:16.990Z,87.854004
2018-11-26T01:09:36.594Z,88.05542
2018-11-26T01:09:56.212Z,88.15918
2018-11-26T01:10:15.899Z,87.854004
2018-11-26T01:10:35.511Z,88.15918
2018-11-26T01:10:55.147Z,88.15918
2018-11-26T01:11:14.756Z,87.95166
2018-11-26T01:11:34.384Z,87.95166
2018-11-26T01:11:54.180Z,87.95166
2018-11-26T01:12:13.802Z,88.05542
2018-11-26T01:12:33.545Z,87.95166
2018-11-26T01:12:53.290Z,88.256836
2018-11-26T01:13:12.980Z,88.256836
2018-11-26T01:13:32.604Z,88.256836
2018-11-26T01:13:52.468Z,88.05542
2018-11-26T01:14:12.246Z,88.15918
2018-11-26T01:14:31.982Z,88.05542
2018-11-26T01:14:51.609Z,88.15918
2018-11-26T01:15:11.222Z,88.15918
2018-11-26T01:15:30.831Z,88.256836
2018-11-26T01:15:50.524Z,88.05542
2018-11-26T01:16:10.153Z,88.05542
2018-11-26T01:16:29.777Z,88.05542
2018-11-26T01:16:49.384Z,87.750244
2018-11-26T01:17:09.064Z,88.05542
2018-11-26T01:17:28.698Z,88.360596
2018-11-26T01:17:48.309Z,88.665771
2018-11-26T01:18:07.916Z,88.970947
2018-11-26T01:18:27.523Z,88.970947
2018-11-26T01:18:47.180Z,88.867188
2018-11-26T01:19:06.785Z,88.562012
2018-11-26T01:19:26.398Z,88.562012
2018-11-26T01:19:46.000Z,88.867188
2018-11-26T01:20:05.616Z,88.763428
2018-11-26T01:20:25.238Z,88.763428
2018-11-26T01:20:44.846Z,88.970947
2018-11-26T01:21:04.855Z,88.970947
2018-11-26T01:21:24.465Z,89.276123
2018-11-26T01:21:44.188Z,89.172363
2018-11-26T01:22:03.895Z,89.172363
2018-11-26T01:22:23.499Z,89.373779
2018-11-26T01:22:43.119Z,89.581299
2018-11-26T01:23:02.733Z,89.581299
2018-11-26T01:23:22.374Z,89.373779
2018-11-26T01:23:42.974Z,89.068604
2018-11-26T01:24:02.671Z,88.970947
2018-11-26T01:24:22.285Z,88.970947
2018-11-26T01:24:41.898Z,88.970947
2018-11-26T01:25:01.532Z,88.970947
2018-11-26T01:25:22.172Z,89.276123
2018-11-26T01:25:41.817Z,89.373779
2018-11-26T01:26:01.426Z,89.373779
2018-11-26T01:26:21.038Z,89.581299
2018-11-26T01:26:40.641Z,89.276123
2018-11-26T01:27:00.287Z,89.880371
2018-11-26T01:27:20.160Z,90.594482
2018-11-26T01:27:39.765Z,90.899658
2018-11-26T01:27:59.387Z,92.016602
2018-11-26T01:28:18.995Z,92.828369
2018-11-26T01:28:38.642Z,93.237305
2018-11-26T01:28:58.347Z,93.54248
2018-11-26T01:29:17.951Z,93.682861
2018-11-26T01:29:37.558Z,93.640137
2018-11-26T01:29:58.215Z,93.890381
2018-11-26T01:30:17.825Z,93.841553
2018-11-26T01:30:37.443Z,93.786621
2018-11-26T01:30:57.145Z,93.743896
2018-11-26T01:31:16.763Z,94.049072
2018-11-26T01:31:36.436Z,94.354248
2018-11-26T01:31:56.068Z,94.451904
2018-11-26T01:32:15.779Z,94.354248
2018-11-26T01:32:35.395Z,94.250488
2018-11-26T01:32:55.012Z,94.049072
2018-11-26T01:33:14.711Z,93.945312
2018-11-26T01:33:34.347Z,93.945312
2018-11-26T01:33:54.038Z,93.841553
2018-11-26T01:34:13.703Z,93.841553
2018-11-26T01:34:33.314Z,94.146729
2018-11-26T01:34:52.924Z,94.451904
2018-11-26T01:35:13.590Z,94.451904
2018-11-26T01:35:33.196Z,94.659424
2018-11-26T01:35:52.803Z,94.86084
2018-11-26T01:36:12.449Z,94.659424
2018-11-26T01:36:32.060Z,94.250488
2018-11-26T01:36:51.674Z,94.354248
2018-11-26T01:37:11.338Z,94.146729
2018-11-26T01:37:31.930Z,93.890381
2018-11-26T01:37:51.539Z,93.585205
2018-11-26T01:38:11.145Z,93.890381
2018-11-26T01:38:30.758Z,94.293213
2018-11-26T01:38:50.389Z,94.250488
2018-11-26T01:39:09.991Z,94.354248
2018-11-26T01:39:31.355Z,94.250488
2018-11-26T01:39:50.987Z,93.890381
2018-11-26T01:40:10.701Z,93.841553
2018-11-26T01:40:30.284Z,93.585205
2018-11-26T01:40:50.889Z,93.682861
2018-11-26T01:41:10.515Z,93.438721
2018-11-26T01:41:30.215Z,93.640137
2018-11-26T01:41:50.020Z,93.945312
2018-11-26T01:42:09.636Z,93.841553
2018-11-26T01:42:29.330Z,93.841553
2018-11-26T01:42:48.981Z,93.786621
2018-11-26T01:43:08.658Z,93.438721
2018-11-26T01:43:28.272Z,93.438721
2018-11-26T01:43:47.944Z,93.585205
2018-11-26T01:44:07.604Z,93.585205
2018-11-26T01:44:27.225Z,93.585205
2018-11-26T01:44:46.835Z,93.481445
2018-11-26T01:45:06.456Z,93.334961
2018-11-26T01:45:26.067Z,92.828369
2018-11-26T01:45:45.759Z,92.059326
2018-11-26T01:46:05.369Z,91.85791
2018-11-26T01:46:24.976Z,91.955566
2018-11-26T01:46:44.636Z,91.955566
2018-11-26T01:47:04.429Z,91.75415
2018-11-26T01:47:24.089Z,91.75415
2018-11-26T01:47:43.720Z,91.650391
2018-11-26T01:48:03.327Z,91.955566
2018-11-26T01:48:22.993Z,92.364502
2018-11-26T01:48:42.633Z,92.419434
2018-11-26T01:49:03.257Z,92.364502
2018-11-26T01:49:22.857Z,91.650391
2018-11-26T01:49:42.478Z,90.533447
2018-11-26T01:50:02.176Z,90.332031
2018-11-26T01:50:22.795Z,90.332031
2018-11-26T01:50:42.503Z,90.637207
2018-11-26T01:51:02.174Z,90.838623
2018-11-26T01:51:22.779Z,90.533447
2018-11-26T01:51:42.384Z,90.228271
2018-11-26T01:52:02.093Z,89.520264
2018-11-26T01:52:21.753Z,89.61792
2018-11-26T01:52:41.427Z,89.72168
2018-11-26T01:53:00.976Z,89.520264
2018-11-26T01:53:20.586Z,89.520264
2018-11-26T01:53:40.260Z,89.520264
2018-11-26T01:53:59.889Z,89.520264
2018-11-26T01:54:19.497Z,89.312744
2018-11-26T01:54:39.121Z,88.604736
2018-11-26T01:54:58.874Z,88.299561
2018-11-26T01:55:18.516Z,87.792969
2018-11-26T01:55:38.124Z,87.689209
2018-11-26T01:55:57.736Z,87.585449
2018-11-26T01:56:17.364Z,87.689209
2018-11-26T01:56:36.983Z,87.585449
2018-11-26T01:56:57.423Z,87.384033
2018-11-26T01:57:17.049Z,87.384033
2018-11-26T01:57:36.766Z,87.286377
2018-11-26T01:57:56.392Z,87.182617
2018-11-26T01:58:16.779Z,87.078857
2018-11-26T01:58:36.389Z,87.078857
2018-11-26T01:58:56.006Z,86.773682
2018-11-26T01:59:15.623Z,86.773682
2018-11-26T01:59:35.232Z,86.981201
2018-11-26T01:59:54.844Z,87.078857
2018-11-26T02:00:15.500Z,87.286377
2018-11-26T02:00:35.335Z,87.286377
2018-11-26T02:00:55.080Z,87.286377
2018-11-26T02:01:14.693Z,87.182617
2018-11-26T02:01:34.301Z,87.182617
2018-11-26T02:01:53.908Z,86.981201
2018-11-26T02:02:14.562Z,86.572266
2018-11-26T02:02:35.025Z,86.572266
2018-11-26T02:02:55.444Z,86.468506
2018-11-26T02:03:15.056Z,86.468506
2018-11-26T02:03:34.663Z,86.37085
2018-11-26T02:03:54.266Z,86.468506
2018-11-26T02:04:13.905Z,86.572266
2018-11-26T02:04:33.605Z,86.676025
2018-11-26T02:04:53.216Z,86.468506
2018-11-26T02:05:12.825Z,86.37085
2018-11-26T02:05:32.507Z,86.26709
2018-11-26T02:05:53.104Z,86.572266
2018-11-26T02:06:12.818Z,86.773682
2018-11-26T02:06:32.442Z,86.877441
2018-11-26T02:06:52.059Z,87.182617
2018-11-26T02:07:11.669Z,87.182617
2018-11-26T02:07:31.281Z,87.286377
2018-11-26T02:07:50.972Z,87.286377
2018-11-26T02:08:10.550Z,87.078857
2018-11-26T02:08:30.163Z,86.773682
2018-11-26T02:08:49.768Z,86.773682
2018-11-26T02:09:09.382Z,86.877441
2018-11-26T02:09:29.107Z,86.877441
2018-11-26T02:09:48.784Z,86.773682
2018-11-26T02:10:09.420Z,86.773682
2018-11-26T02:10:29.035Z,86.676025
2018-11-26T02:10:48.646Z,86.676025
2018-11-26T02:11:08.257Z,86.676025
2018-11-26T02:11:27.880Z,86.676025
2018-11-26T02:11:47.548Z,86.676025
2018-11-26T02:12:07.155Z,87.078857
2018-11-26T02:12:26.801Z,86.877441
2018-11-26T02:12:46.472Z,86.877441
2018-11-26T02:13:06.099Z,86.773682
2018-11-26T02:13:25.711Z,86.773682
2018-11-26T02:13:45.377Z,86.773682
2018-11-26T02:14:05.000Z,86.773682
2018-11-26T02:14:24.610Z,86.773682
2018-11-26T02:14:44.230Z,86.877441
2018-11-26T02:15:03.904Z,86.981201
2018-11-26T02:15:23.594Z,86.877441
2018-11-26T02:15:43.255Z,86.877441
2018-11-26T02:16:02.939Z,86.877441
2018-11-26T02:16:22.550Z,87.078857
2018-11-26T02:16:42.156Z,86.877441
2018-11-26T02:17:02.826Z,86.877441
2018-11-26T02:17:22.504Z,86.676025
2018-11-26T02:17:42.122Z,86.468506
2018-11-26T02:18:01.803Z,86.37085
2018-11-26T02:18:21.406Z,86.468506
2018-11-26T02:18:41.041Z,86.572266
2018-11-26T02:19:00.823Z,86.572266
2018-11-26T02:19:20.465Z,86.572266
2018-11-26T02:19:40.071Z,86.468506
2018-11-26T02:19:59.683Z,86.37085
2018-11-26T02:20:19.331Z,86.468506
2018-11-26T02:20:38.945Z,86.468506
2018-11-26T02:20:58.612Z,86.37085
2018-11-26T02:21:18.261Z,86.26709
2018-11-26T02:21:37.847Z,86.16333
2018-11-26T02:21:57.587Z,86.16333
2018-11-26T02:22:17.233Z,86.065674
2018-11-26T02:22:36.877Z,85.858154
2018-11-26T02:22:56.757Z,85.858154
2018-11-26T02:23:16.725Z,85.858154
2018-11-26T02:23:36.773Z,85.961914
2018-11-26T02:23:56.598Z,85.961914
2018-11-26T02:24:16.180Z,85.858154
2018-11-26T02:24:35.787Z,86.065674
2018-11-26T02:24:55.419Z,85.961914
2018-11-26T02:25:15.043Z,85.858154
2018-11-26T02:25:34.733Z,85.656738
2018-11-26T02:25:54.350Z,85.455322
2018-11-26T02:26:14.955Z,85.552979
2018-11-26T02:26:34.635Z,85.552979
2018-11-26T02:26:54.244Z,85.552979
2018-11-26T02:27:13.907Z,85.760498
2018-11-26T02:27:33.604Z,85.961914
2018-11-26T02:27:53.241Z,85.150146
2018-11-26T02:28:13.694Z,84.741211
2018-11-26T02:28:33.319Z,84.643555
2018-11-26T02:28:52.926Z,84.844971
2018-11-26T02:29:12.536Z,84.94873
2018-11-26T02:29:32.183Z,85.150146
2018-11-26T02:29:52.018Z,85.046387
2018-11-26T02:30:11.667Z,84.94873
2018-11-26T02:30:31.290Z,84.539795
2018-11-26T02:30:50.904Z,84.680176
2018-11-26T02:31:10.511Z,84.58252
2018-11-26T02:31:30.162Z,84.375
2018-11-26T02:31:49.797Z,83.868408
2018-11-26T02:32:09.408Z,83.563232
2018-11-26T02:32:29.009Z,83.361816
2018-11-26T02:32:49.621Z,83.361816
2018-11-26T02:33:09.282Z,83.258057
2018-11-26T02:33:28.885Z,83.459473
2018-11-26T02:33:48.498Z,84.173584
2018-11-26T02:34:08.128Z,83.666992
2018-11-26T02:34:27.818Z,83.666992
2018-11-26T02:34:47.526Z,83.666992
2018-11-26T02:35:07.144Z,83.666992
2018-11-26T02:35:27.935Z,83.563232
2018-11-26T02:35:47.729Z,83.459473
2018-11-26T02:36:07.367Z,83.459473
2018-11-26T02:36:27.032Z,83.764648
2018-11-26T02:36:47.065Z,83.666992
2018-11-26T02:37:07.645Z,83.666992
2018-11-26T02:37:27.324Z,83.666992
2018-11-26T02:37:47.035Z,83.666992
2018-11-26T02:38:06.702Z,84.069824
2018-11-26T02:38:26.314Z,83.868408
2018-11-26T02:38:46.114Z,83.972168
2018-11-26T02:39:05.722Z,84.069824
2018-11-26T02:39:26.690Z,83.563232
2018-11-26T02:39:46.389Z,83.459473
2018-11-26T02:40:05.986Z,83.563232
2018-11-26T02:40:25.617Z,83.361816
2018-11-26T02:40:45.222Z,83.459473
2018-11-26T02:41:04.842Z,83.361816
2018-11-26T02:41:24.443Z,82.849121
2018-11-26T02:41:44.060Z,82.952881
2018-11-26T02:42:03.705Z,83.056641
2018-11-26T02:42:23.315Z,83.258057
2018-11-26T02:42:42.931Z,83.361816
2018-11-26T02:43:02.565Z,83.361816
2018-11-26T02:43:23.198Z,83.563232
2018-11-26T02:43:42.834Z,83.258057
2018-11-26T02:44:02.438Z,82.952881
2018-11-26T02:44:22.633Z,83.056641
2018-11-26T02:44:42.634Z,83.154297
2018-11-26T02:45:02.243Z,83.459473
2018-11-26T02:45:22.058Z,83.459473
2018-11-26T02:45:41.679Z,83.563232
2018-11-26T02:46:01.294Z,83.666992
2018-11-26T02:46:20.939Z,83.764648
2018-11-26T02:46:40.608Z,83.764648
2018-11-26T02:47:00.212Z,83.764648
2018-11-26T02:47:19.861Z,83.056641
2018-11-26T02:47:39.474Z,82.952881
2018-11-26T02:47:59.113Z,83.154297
2018-11-26T02:48:18.914Z,83.056641
2018-11-26T02:48:38.675Z,82.751465
2018-11-26T02:48:58.332Z,82.849121
2018-11-26T02:49:17.937Z,82.849121
2018-11-26T02:49:37.626Z,82.647705
2018-11-26T02:49:57.249Z,82.751465
2018-11-26T02:50:16.877Z,83.154297
2018-11-26T02:50:36.482Z,83.258057
2018-11-26T02:50:56.111Z,83.258057
2018-11-26T02:51:15.710Z,83.154297
2018-11-26T02:51:35.384Z,83.154297
2018-11-26T02:51:55.033Z,83.258057
2018-11-26T02:52:14.658Z,83.258057
2018-11-26T02:52:34.268Z,82.647705
2018-11-26T02:52:53.904Z,82.543945
2018-11-26T02:53:13.523Z,82.543945
2018-11-26T02:53:34.172Z,82.446289
2018-11-26T02:53:53.780Z,82.342529
2018-11-26T02:54:13.395Z,82.141113
2018-11-26T02:54:32.999Z,82.037354
2018-11-26T02:54:53.688Z,82.342529
2018-11-26T02:55:13.300Z,82.647705
2018-11-26T02:55:32.913Z,82.849121
2018-11-26T02:55:52.544Z,82.751465
2018-11-26T02:56:12.141Z,82.543945
2018-11-26T02:56:31.759Z,82.342529
2018-11-26T02:56:51.384Z,82.342529
2018-11-26T02:57:11.002Z,82.543945
2018-11-26T02:57:30.636Z,82.446289
2018-11-26T02:57:50.785Z,82.751465
2018-11-26T02:58:10.434Z,82.849121
2018-11-26T02:58:30.093Z,82.751465
2018-11-26T02:58:49.792Z,82.849121
2018-11-26T02:59:09.392Z,82.751465
2018-11-26T02:59:29.020Z,82.849121
2018-11-26T02:59:48.614Z,82.647705
2018-11-26T03:00:08.248Z,82.543945
2018-11-26T03:00:27.894Z,82.647705
2018-11-26T03:00:47.551Z,82.751465
2018-11-26T03:01:07.184Z,82.647705
2018-11-26T03:01:26.807Z,82.543945
2018-11-26T03:01:46.452Z,82.342529
2018-11-26T03:02:06.091Z,82.543945
2018-11-26T03:02:25.692Z,82.543945
2018-11-26T03:02:45.314Z,82.647705
2018-11-26T03:03:04.916Z,82.647705
2018-11-26T03:03:24.528Z,82.23877
2018-11-26T03:03:44.206Z,82.23877
2018-11-26T03:04:03.845Z,82.342529
2018-11-26T03:04:23.475Z,82.342529
2018-11-26T03:04:43.087Z,82.647705
2018-11-26T03:05:02.784Z,82.543945
2018-11-26T03:05:23.030Z,82.446289
2018-11-26T03:05:42.627Z,82.647705
2018-11-26T03:06:02.254Z,82.446289
2018-11-26T03:06:21.878Z,82.23877
2018-11-26T03:06:41.509Z,82.037354
2018-11-26T03:07:02.222Z,82.141113
2018-11-26T03:07:21.835Z,82.141113
2018-11-26T03:07:41.453Z,81.933594
2018-11-26T03:08:01.095Z,81.530762
2018-11-26T03:08:20.713Z,81.329346
2018-11-26T03:08:40.394Z,81.628418
2018-11-26T03:09:00.011Z,81.835938
2018-11-26T03:09:19.668Z,82.073975
2018-11-26T03:09:39.365Z,82.037354
2018-11-26T03:09:58.992Z,81.835938
2018-11-26T03:10:18.723Z,81.530762
2018-11-26T03:10:38.346Z,81.671143
2018-11-26T03:10:57.961Z,81.732178
2018-11-26T03:11:17.565Z,81.530762
2018-11-26T03:11:37.174Z,81.427002
2018-11-26T03:11:56.782Z,81.628418
2018-11-26T03:12:16.423Z,82.23877
2018-11-26T03:12:36.028Z,82.037354
2018-11-26T03:12:55.640Z,81.835938
2018-11-26T03:13:15.311Z,81.835938
2018-11-26T03:13:36.025Z,81.225586
2018-11-26T03:13:55.712Z,81.225586
2018-11-26T03:14:15.313Z,81.732178
2018-11-26T03:14:34.922Z,81.225586
2018-11-26T03:14:54.552Z,81.02417
2018-11-26T03:15:14.190Z,81.121826
2018-11-26T03:15:33.884Z,81.121826
2018-11-26T03:15:53.504Z,81.225586
2018-11-26T03:16:13.129Z,81.329346
2018-11-26T03:16:32.756Z,81.427002
2018-11-26T03:16:52.531Z,81.329346
2018-11-26T03:17:12.174Z,81.121826
2018-11-26T03:17:31.784Z,80.615234
2018-11-26T03:17:51.397Z,80.92041
2018-11-26T03:18:11.063Z,81.628418
2018-11-26T03:18:30.737Z,81.121826
2018-11-26T03:18:50.504Z,81.02417
2018-11-26T03:19:10.118Z,80.81665
2018-11-26T03:19:29.735Z,80.615234
2018-11-26T03:19:50.369Z,80.34668
2018-11-26T03:20:10.968Z,80.450439
2018-11-26T03:20:30.604Z,80.957031
2018-11-26T03:20:50.235Z,80.92041
2018-11-26T03:21:09.847Z,81.262207
2018-11-26T03:21:29.482Z,81.02417
2018-11-26T03:21:49.093Z,80.81665
2018-11-26T03:22:09.684Z,80.718994
2018-11-26T03:22:29.393Z,80.81665
2018-11-26T03:22:49.011Z,81.02417
2018-11-26T03:23:08.624Z,80.718994
2018-11-26T03:23:28.310Z,80.81665
2018-11-26T03:23:48.910Z,80.206299
2018-11-26T03:24:08.568Z,80.413818
2018-11-26T03:24:28.187Z,80.511475
2018-11-26T03:24:47.800Z,80.413818
2018-11-26T03:25:07.407Z,80.206299
2018-11-26T03:25:27.013Z,80.206299
2018-11-26T03:25:46.649Z,80.108643
2018-11-26T03:26:06.268Z,80.310059
2018-11-26T03:26:25.876Z,80.413818
2018-11-26T03:26:45.497Z,80.310059
2018-11-26T03:27:05.122Z,80.310059
2018-11-26T03:27:24.745Z,80.511475
2018-11-26T03:27:44.414Z,80.413818
2018-11-26T03:28:04.076Z,80.206299
2018-11-26T03:28:23.687Z,80.004883
2018-11-26T03:28:43.327Z,80.206299
2018-11-26T03:29:04.252Z,80.004883
2018-11-26T03:29:23.870Z,79.803467
2018-11-26T03:29:43.604Z,80.004883
2018-11-26T03:30:03.195Z,80.310059
2018-11-26T03:30:22.796Z,80.206299
2018-11-26T03:30:42.411Z,80.108643
2018-11-26T03:31:02.031Z,80.108643
2018-11-26T03:31:21.720Z,80.004883
2018-11-26T03:31:41.376Z,80.004883
2018-11-26T03:32:00.967Z,80.004883
2018-11-26T03:32:20.679Z,79.498291
2018-11-26T03:32:41.280Z,79.394531
2018-11-26T03:33:00.884Z,79.803467
2018-11-26T03:33:20.503Z,79.803467
2018-11-26T03:33:40.125Z,79.394531
2018-11-26T03:33:59.799Z,78.985596
2018-11-26T03:34:19.487Z,79.193115
2018-11-26T03:34:39.102Z,79.193115
2018-11-26T03:34:58.726Z,79.595947
2018-11-26T03:35:18.412Z,79.803467
2018-11-26T03:35:38.033Z,79.498291
2018-11-26T03:35:57.677Z,79.595947
2018-11-26T03:36:17.338Z,79.498291
2018-11-26T03:36:37.022Z,79.394531
2018-11-26T03:36:56.634Z,78.985596
2018-11-26T03:37:16.267Z,78.887939
2018-11-26T03:37:35.880Z,78.985596
2018-11-26T03:37:56.767Z,79.193115
2018-11-26T03:38:16.648Z,79.394531
2018-11-26T03:38:36.258Z,79.901123
2018-11-26T03:38:55.874Z,79.290771
2018-11-26T03:39:15.595Z,78.985596
2018-11-26T03:39:35.275Z,78.375244
2018-11-26T03:39:55.889Z,78.277588
2018-11-26T03:40:15.500Z,79.193115
2018-11-26T03:40:35.100Z,79.193115
2018-11-26T03:40:54.711Z,78.985596
2018-11-26T03:41:14.324Z,79.125977
2018-11-26T03:41:33.938Z,78.78418
2018-11-26T03:41:53.545Z,78.210449
2018-11-26T03:42:13.161Z,78.619385
2018-11-26T03:42:32.786Z,79.022217
2018-11-26T03:42:52.387Z,79.125977
2018-11-26T03:43:11.995Z,78.112793
2018-11-26T03:43:31.602Z,77.502441
2018-11-26T03:43:51.227Z,77.905273
2018-11-26T03:44:10.889Z,78.009033
2018-11-26T03:44:30.494Z,78.717041
2018-11-26T03:44:50.106Z,77.905273
2018-11-26T03:45:09.712Z,78.009033
2018-11-26T03:45:29.341Z,78.009033
2018-11-26T03:45:48.948Z,78.009033